sensor_id;sensor_type;location;lat;lon;timestamp;pressure;altitude;pressure_sealevel;temperature;humidity
56074;BME280;41950;55.840;37.442;2023-08-21T00:00:09;99744.97;;;15.28;85.84
56074;BME280;41950;55.840;37.442;2023-08-21T00:02:39;99784.41;;;15.47;85.88
56074;BME280;41950;55.840;37.442;2023-08-21T00:05:05;99757.25;;;15.26;85.90
56074;BME280;41950;55.840;37.442;2023-08-21T00:07:31;99788.22;;;15.38;85.86
56074;BME280;41950;55.840;37.442;2023-08-21T00:09:58;99777.94;;;15.32;86.06
56074;BME280;41950;55.840;37.442;2023-08-21T00:12:24;99776.34;;;15.28;86.06
56074;BME280;41950;55.840;37.442;2023-08-21T00:14:49;99758.69;;;15.10;86.22
56074;BME280;41950;55.840;37.442;2023-08-21T00:17:15;99772.50;;;15.13;86.21
56074;BME280;41950;55.840;37.442;2023-08-21T00:19:41;99766.78;;;15.02;86.54
56074;BME280;41950;55.840;37.442;2023-08-21T00:22:06;99772.00;;;15.02;86.94
56074;BME280;41950;55.840;37.442;2023-08-21T00:24:35;99775.41;;;15.04;87.24
56074;BME280;41950;55.840;37.442;2023-08-21T00:27:00;99785.03;;;15.04;87.45
56074;BME280;41950;55.840;37.442;2023-08-21T00:29:27;99776.31;;;15.03;87.78
56074;BME280;41950;55.840;37.442;2023-08-21T00:31:53;99764.31;;;14.98;87.48
56074;BME280;41950;55.840;37.442;2023-08-21T00:34:20;99755.94;;;14.88;87.43
56074;BME280;41950;55.840;37.442;2023-08-21T00:36:46;99730.31;;;14.73;87.69
56074;BME280;41950;55.840;37.442;2023-08-21T00:39:11;99774.72;;;14.99;87.94
56074;BME280;41950;55.840;37.442;2023-08-21T00:41:40;99763.91;;;14.85;88.29
56074;BME280;41950;55.840;37.442;2023-08-21T00:44:05;99784.47;;;14.94;88.65
56074;BME280;41950;55.840;37.442;2023-08-21T00:46:31;99746.00;;;14.73;88.84
56074;BME280;41950;55.840;37.442;2023-08-21T00:48:57;99711.81;;;14.54;88.70
56074;BME280;41950;55.840;37.442;2023-08-21T00:51:23;99769.91;;;14.87;88.78
56074;BME280;41950;55.840;37.442;2023-08-21T00:53:50;99770.50;;;14.95;89.20
56074;BME280;41950;55.840;37.442;2023-08-21T00:56:16;99783.31;;;15.03;89.27
56074;BME280;41950;55.840;37.442;2023-08-21T00:58:42;99781.00;;;14.94;88.96
56074;BME280;41950;55.840;37.442;2023-08-21T01:01:12;99743.44;;;14.71;89.20
56074;BME280;41950;55.840;37.442;2023-08-21T01:03:38;99784.38;;;14.97;89.48
56074;BME280;41950;55.840;37.442;2023-08-21T01:06:05;99735.69;;;14.68;89.50
56074;BME280;41950;55.840;37.442;2023-08-21T01:08:42;99765.75;;;14.81;89.11
56074;BME280;41950;55.840;37.442;2023-08-21T01:11:40;99794.63;;;15.03;89.13
56074;BME280;41950;55.840;37.442;2023-08-21T01:17:06;99802.09;;;14.89;89.34
56074;BME280;41950;55.840;37.442;2023-08-21T01:19:38;99739.13;;;14.42;89.20
56074;BME280;41950;55.840;37.442;2023-08-21T01:22:05;99731.41;;;14.39;89.50
56074;BME280;41950;55.840;37.442;2023-08-21T01:24:31;99780.13;;;14.68;89.86
56074;BME280;41950;55.840;37.442;2023-08-21T01:26:57;99752.81;;;14.50;90.62
56074;BME280;41950;55.840;37.442;2023-08-21T01:29:23;99756.16;;;14.56;90.59
56074;BME280;41950;55.840;37.442;2023-08-21T01:34:42;99794.72;;;14.74;91.42
56074;BME280;41950;55.840;37.442;2023-08-21T01:37:09;99800.00;;;14.72;91.13
56074;BME280;41950;55.840;37.442;2023-08-21T01:39:36;99742.69;;;14.40;91.41
56074;BME280;41950;55.840;37.442;2023-08-21T01:42:02;99797.41;;;14.72;91.47
56074;BME280;41950;55.840;37.442;2023-08-21T01:44:27;99729.25;;;14.24;90.55
56074;BME280;41950;55.840;37.442;2023-08-21T01:46:53;99761.75;;;14.43;90.78
56074;BME280;41950;55.840;37.442;2023-08-21T01:49:19;99795.19;;;14.60;90.73
56074;BME280;41950;55.840;37.442;2023-08-21T01:51:45;99766.44;;;14.32;90.77
56074;BME280;41950;55.840;37.442;2023-08-21T01:54:11;99812.81;;;14.53;90.97
56074;BME280;41950;55.840;37.442;2023-08-21T01:56:37;99817.13;;;14.55;91.10
56074;BME280;41950;55.840;37.442;2023-08-21T01:59:04;99776.88;;;14.32;91.42
56074;BME280;41950;55.840;37.442;2023-08-21T02:01:30;99776.22;;;14.26;91.91
56074;BME280;41950;55.840;37.442;2023-08-21T02:03:57;99794.91;;;14.40;92.24
56074;BME280;41950;55.840;37.442;2023-08-21T02:06:23;99813.72;;;14.52;92.40
56074;BME280;41950;55.840;37.442;2023-08-21T02:08:49;99780.31;;;14.34;92.55
56074;BME280;41950;55.840;37.442;2023-08-21T02:11:15;99815.38;;;14.55;92.33
56074;BME280;41950;55.840;37.442;2023-08-21T02:13:42;99794.31;;;14.32;92.23
56074;BME280;41950;55.840;37.442;2023-08-21T02:16:08;99740.53;;;13.98;91.82
56074;BME280;41950;55.840;37.442;2023-08-21T02:18:33;99779.09;;;14.16;92.30
56074;BME280;41950;55.840;37.442;2023-08-21T02:21:02;99807.47;;;14.29;92.72
56074;BME280;41950;55.840;37.442;2023-08-21T02:23:27;99803.22;;;14.25;92.73
56074;BME280;41950;55.840;37.442;2023-08-21T02:25:54;99768.13;;;14.05;92.78
56074;BME280;41950;55.840;37.442;2023-08-21T02:28:20;99775.03;;;14.08;92.89
56074;BME280;41950;55.840;37.442;2023-08-21T02:30:46;99778.47;;;14.08;92.81
56074;BME280;41950;55.840;37.442;2023-08-21T02:33:13;99791.38;;;14.13;92.69
56074;BME280;41950;55.840;37.442;2023-08-21T02:35:39;99780.38;;;14.03;92.98
56074;BME280;41950;55.840;37.442;2023-08-21T02:38:04;99800.88;;;14.15;92.74
56074;BME280;41950;55.840;37.442;2023-08-21T02:40:31;99805.28;;;14.13;92.57
56074;BME280;41950;55.840;37.442;2023-08-21T02:42:57;99813.88;;;14.17;93.00
56074;BME280;41950;55.840;37.442;2023-08-21T02:45:24;99813.03;;;14.16;93.31
56074;BME280;41950;55.840;37.442;2023-08-21T02:47:50;99826.78;;;14.21;93.38
56074;BME280;41950;55.840;37.442;2023-08-21T02:50:17;99758.38;;;13.82;93.21
56074;BME280;41950;55.840;37.442;2023-08-21T02:52:43;99764.22;;;13.90;93.01
56074;BME280;41950;55.840;37.442;2023-08-21T02:55:09;99822.44;;;14.22;93.29
56074;BME280;41950;55.840;37.442;2023-08-21T02:57:36;99831.91;;;14.26;93.28
56074;BME280;41950;55.840;37.442;2023-08-21T03:00:03;99832.72;;;14.28;92.95
56074;BME280;41950;55.840;37.442;2023-08-21T03:02:31;99762.59;;;13.86;92.94
56074;BME280;41950;55.840;37.442;2023-08-21T03:04:58;99818.19;;;14.18;93.18
56074;BME280;41950;55.840;37.442;2023-08-21T03:07:23;99770.94;;;13.99;92.81
56074;BME280;41950;55.840;37.442;2023-08-21T03:09:49;99779.34;;;14.09;92.81
56074;BME280;41950;55.840;37.442;2023-08-21T03:12:16;99832.53;;;14.34;92.62
56074;BME280;41950;55.840;37.442;2023-08-21T03:14:42;99764.94;;;13.96;92.34
56074;BME280;41950;55.840;37.442;2023-08-21T03:17:08;99824.63;;;14.36;92.04
56074;BME280;41950;55.840;37.442;2023-08-21T03:19:35;99803.50;;;14.15;91.80
56074;BME280;41950;55.840;37.442;2023-08-21T03:22:02;99821.94;;;14.39;91.64
56074;BME280;41950;55.840;37.442;2023-08-21T03:24:28;99798.03;;;14.23;91.88
56074;BME280;41950;55.840;37.442;2023-08-21T03:26:55;99815.84;;;14.38;91.79
56074;BME280;41950;55.840;37.442;2023-08-21T03:29:20;99720.25;;;13.78;90.97
56074;BME280;41950;55.840;37.442;2023-08-21T03:31:49;99808.06;;;14.37;90.65
56074;BME280;41950;55.840;37.442;2023-08-21T03:34:17;99802.81;;;14.38;90.35
56074;BME280;41950;55.840;37.442;2023-08-21T03:36:43;99801.09;;;14.37;90.56
56074;BME280;41950;55.840;37.442;2023-08-21T03:39:09;99788.44;;;14.23;90.05
56074;BME280;41950;55.840;37.442;2023-08-21T03:41:35;99731.78;;;13.99;89.46
56074;BME280;41950;55.840;37.442;2023-08-21T03:44:01;99824.88;;;14.58;89.64
56074;BME280;41950;55.840;37.442;2023-08-21T03:46:27;99811.91;;;14.55;88.92
56074;BME280;41950;55.840;37.442;2023-08-21T03:48:52;99807.38;;;14.60;88.42
56074;BME280;41950;55.840;37.442;2023-08-21T03:51:18;99769.53;;;14.45;88.55
56074;BME280;41950;55.840;37.442;2023-08-21T03:53:44;99805.53;;;14.63;88.01
56074;BME280;41950;55.840;37.442;2023-08-21T03:56:09;99834.72;;;14.76;88.00
56074;BME280;41950;55.840;37.442;2023-08-21T03:58:35;99833.00;;;14.75;88.03
56074;BME280;41950;55.840;37.442;2023-08-21T04:01:00;99728.38;;;14.25;87.72
56074;BME280;41950;55.840;37.442;2023-08-21T04:03:26;99841.38;;;14.86;87.91
56074;BME280;41950;55.840;37.442;2023-08-21T04:05:55;99773.63;;;14.53;87.56
56074;BME280;41950;55.840;37.442;2023-08-21T04:08:24;99777.75;;;14.61;86.92
56074;BME280;41950;55.840;37.442;2023-08-21T04:10:50;99788.81;;;14.69;86.38
56074;BME280;41950;55.840;37.442;2023-08-21T04:13:18;99668.28;;;14.00;85.50
56074;BME280;41950;55.840;37.442;2023-08-21T04:15:48;99834.72;;;15.02;85.00
56074;BME280;41950;55.840;37.442;2023-08-21T04:18:14;99719.25;;;14.38;84.81
56074;BME280;41950;55.840;37.442;2023-08-21T04:20:40;99827.56;;;15.09;84.49
56074;BME280;41950;55.840;37.442;2023-08-21T04:23:05;99780.47;;;14.84;83.49
56074;BME280;41950;55.840;37.442;2023-08-21T04:25:31;99747.97;;;14.66;83.36
56074;BME280;41950;55.840;37.442;2023-08-21T04:27:56;99818.50;;;15.19;82.37
56074;BME280;41950;55.840;37.442;2023-08-21T04:30:22;99838.00;;;15.35;82.38
56074;BME280;41950;55.840;37.442;2023-08-21T04:32:48;99795.19;;;15.13;81.50
56074;BME280;41950;55.840;37.442;2023-08-21T04:35:14;99743.84;;;14.86;81.40
56074;BME280;41950;55.840;37.442;2023-08-21T04:37:46;99679.69;;;14.52;81.44
56074;BME280;41950;55.840;37.442;2023-08-21T04:40:12;99727.50;;;14.79;81.04
56074;BME280;41950;55.840;37.442;2023-08-21T04:42:38;99767.53;;;15.06;80.61
56074;BME280;41950;55.840;37.442;2023-08-21T04:45:04;99815.00;;;15.45;80.21
56074;BME280;41950;55.840;37.442;2023-08-21T04:47:31;99803.00;;;15.39;79.91
56074;BME280;41950;55.840;37.442;2023-08-21T04:49:57;99808.84;;;15.46;79.72
56074;BME280;41950;55.840;37.442;2023-08-21T04:52:23;99830.66;;;15.71;79.04
56074;BME280;41950;55.840;37.442;2023-08-21T04:54:50;99828.25;;;15.65;77.57
56074;BME280;41950;55.840;37.442;2023-08-21T04:57:16;99752.00;;;15.26;78.00
56074;BME280;41950;55.840;37.442;2023-08-21T04:59:43;99811.53;;;15.69;77.95
56074;BME280;41950;55.840;37.442;2023-08-21T05:02:09;99709.09;;;15.08;78.07
56074;BME280;41950;55.840;37.442;2023-08-21T05:04:36;99670.41;;;14.93;78.07
56074;BME280;41950;55.840;37.442;2023-08-21T05:07:03;99834.09;;;15.97;77.24
56074;BME280;41950;55.840;37.442;2023-08-21T05:09:28;99793.09;;;15.72;77.29
56074;BME280;41950;55.840;37.442;2023-08-21T05:11:54;99812.63;;;15.87;76.37
56074;BME280;41950;55.840;37.442;2023-08-21T05:14:21;99757.84;;;15.58;76.86
56074;BME280;41950;55.840;37.442;2023-08-21T05:16:48;99844.81;;;16.13;77.01
56074;BME280;41950;55.840;37.442;2023-08-21T05:19:14;99835.06;;;16.18;76.56
56074;BME280;41950;55.840;37.442;2023-08-21T05:21:40;99822.91;;;16.15;75.71
56074;BME280;41950;55.840;37.442;2023-08-21T05:24:05;99824.66;;;16.16;74.54
56074;BME280;41950;55.840;37.442;2023-08-21T05:26:31;99842.50;;;16.28;74.03
56074;BME280;41950;55.840;37.442;2023-08-21T05:28:57;99832.94;;;16.27;74.67
56074;BME280;41950;55.840;37.442;2023-08-21T05:31:22;99784.78;;;16.08;74.11
56074;BME280;41950;55.840;37.442;2023-08-21T05:33:48;99842.59;;;16.49;74.29
56074;BME280;41950;55.840;37.442;2023-08-21T05:36:14;99841.69;;;16.50;73.29
56074;BME280;41950;55.840;37.442;2023-08-21T05:38:39;99819.94;;;16.48;72.95
56074;BME280;41950;55.840;37.442;2023-08-21T05:41:05;99842.91;;;16.63;72.73
56074;BME280;41950;55.840;37.442;2023-08-21T05:43:31;99792.31;;;16.39;72.55
56074;BME280;41950;55.840;37.442;2023-08-21T05:45:57;99838.44;;;16.65;72.39
56074;BME280;41950;55.840;37.442;2023-08-21T05:48:23;99802.19;;;16.54;72.31
56074;BME280;41950;55.840;37.442;2023-08-21T05:50:52;99805.03;;;16.72;72.48
56074;BME280;41950;55.840;37.442;2023-08-21T05:53:18;99805.06;;;16.70;71.79
56074;BME280;41950;55.840;37.442;2023-08-21T05:55:44;99817.50;;;16.87;71.99
56074;BME280;41950;55.840;37.442;2023-08-21T05:58:10;99828.53;;;16.95;72.38
56074;BME280;41950;55.840;37.442;2023-08-21T06:00:38;99820.66;;;16.95;70.92
56074;BME280;41950;55.840;37.442;2023-08-21T06:03:04;99831.84;;;17.00;71.25
56074;BME280;41950;55.840;37.442;2023-08-21T06:05:30;99826.41;;;17.05;70.93
56074;BME280;41950;55.840;37.442;2023-08-21T06:07:56;99826.22;;;17.09;69.89
56074;BME280;41950;55.840;37.442;2023-08-21T06:10:22;99833.53;;;17.21;69.81
56074;BME280;41950;55.840;37.442;2023-08-21T06:12:48;99822.63;;;17.32;69.40
56074;BME280;41950;55.840;37.442;2023-08-21T06:15:14;99790.88;;;17.18;69.18
56074;BME280;41950;55.840;37.442;2023-08-21T06:17:40;99760.78;;;17.06;68.01
56074;BME280;41950;55.840;37.442;2023-08-21T06:20:07;99813.56;;;17.59;67.46
56074;BME280;41950;55.840;37.442;2023-08-21T06:22:37;99768.97;;;17.39;66.50
56074;BME280;41950;55.840;37.442;2023-08-21T06:25:04;99768.41;;;17.51;65.58
56074;BME280;41950;55.840;37.442;2023-08-21T06:27:29;99723.06;;;17.29;65.06
56074;BME280;41950;55.840;37.442;2023-08-21T06:29:55;99751.09;;;17.47;64.91
56074;BME280;41950;55.840;37.442;2023-08-21T06:32:21;99579.78;;;16.48;63.93
56074;BME280;41950;55.840;37.442;2023-08-21T06:34:46;99669.34;;;16.98;64.02
56074;BME280;41950;55.840;37.442;2023-08-21T06:37:12;99785.06;;;17.50;62.88
56074;BME280;41950;55.840;37.442;2023-08-21T06:39:38;99817.03;;;17.60;64.03
56074;BME280;41950;55.840;37.442;2023-08-21T06:42:04;99802.41;;;17.54;64.56
56074;BME280;41950;55.840;37.442;2023-08-21T06:44:30;99819.72;;;17.79;64.71
56074;BME280;41950;55.840;37.442;2023-08-21T06:46:56;99765.72;;;17.73;64.96
56074;BME280;41950;55.840;37.442;2023-08-21T06:49:21;99789.66;;;18.05;63.44
56074;BME280;41950;55.840;37.442;2023-08-21T06:51:47;99763.13;;;17.92;61.47
56074;BME280;41950;55.840;37.442;2023-08-21T06:54:12;99815.44;;;18.15;60.88
56074;BME280;41950;55.840;37.442;2023-08-21T06:56:38;99809.13;;;18.19;60.32
56074;BME280;41950;55.840;37.442;2023-08-21T06:59:04;99832.03;;;18.35;60.60
56074;BME280;41950;55.840;37.442;2023-08-21T07:01:29;99790.31;;;18.10;61.14
56074;BME280;41950;55.840;37.442;2023-08-21T07:03:55;99797.47;;;18.25;61.66
56074;BME280;41950;55.840;37.442;2023-08-21T07:06:21;99830.69;;;18.45;59.77
56074;BME280;41950;55.840;37.442;2023-08-21T07:08:46;99816.41;;;18.32;60.28
56074;BME280;41950;55.840;37.442;2023-08-21T07:11:12;99842.50;;;18.36;60.11
56074;BME280;41950;55.840;37.442;2023-08-21T07:13:38;99807.75;;;18.30;59.99
56074;BME280;41950;55.840;37.442;2023-08-21T07:16:05;99758.28;;;18.20;58.50
56074;BME280;41950;55.840;37.442;2023-08-21T07:18:35;99793.59;;;18.51;59.19
56074;BME280;41950;55.840;37.442;2023-08-21T07:21:02;99838.84;;;18.76;59.45
56074;BME280;41950;55.840;37.442;2023-08-21T07:23:32;99802.13;;;18.56;60.63
56074;BME280;41950;55.840;37.442;2023-08-21T07:25:59;99824.56;;;18.82;60.51
56074;BME280;41950;55.840;37.442;2023-08-21T07:28:25;99792.91;;;18.83;59.00
56074;BME280;41950;55.840;37.442;2023-08-21T07:30:57;99816.31;;;19.07;56.68
56074;BME280;41950;55.840;37.442;2023-08-21T07:33:25;99820.78;;;19.05;56.21
56074;BME280;41950;55.840;37.442;2023-08-21T07:35:58;99803.53;;;19.17;56.29
56074;BME280;41950;55.840;37.442;2023-08-21T07:38:23;99799.56;;;19.42;56.48
56074;BME280;41950;55.840;37.442;2023-08-21T07:40:49;99778.59;;;19.58;55.57
56074;BME280;41950;55.840;37.442;2023-08-21T07:43:15;99815.41;;;20.09;53.92
56074;BME280;41950;55.840;37.442;2023-08-21T07:45:40;99824.78;;;20.14;53.95
56074;BME280;41950;55.840;37.442;2023-08-21T07:48:06;99817.03;;;20.27;53.06
56074;BME280;41950;55.840;37.442;2023-08-21T07:50:32;99785.75;;;20.21;53.05
56074;BME280;41950;55.840;37.442;2023-08-21T07:52:57;99823.72;;;20.65;53.18
56074;BME280;41950;55.840;37.442;2023-08-21T07:55:23;99780.31;;;20.71;51.55
56074;BME280;41950;55.840;37.442;2023-08-21T07:57:49;99801.78;;;20.95;51.83
56074;BME280;41950;55.840;37.442;2023-08-21T08:00:15;99796.97;;;20.87;50.62
56074;BME280;41950;55.840;37.442;2023-08-21T08:02:41;99801.78;;;20.95;51.76
56074;BME280;41950;55.840;37.442;2023-08-21T08:05:08;99746.34;;;20.81;50.34
56074;BME280;41950;55.840;37.442;2023-08-21T08:07:34;99810.16;;;21.17;50.55
56074;BME280;41950;55.840;37.442;2023-08-21T08:10:00;99755.69;;;20.86;50.56
56074;BME280;41950;55.840;37.442;2023-08-21T08:12:25;99805.06;;;21.14;50.36
56074;BME280;41950;55.840;37.442;2023-08-21T08:14:51;99801.22;;;21.20;49.21
56074;BME280;41950;55.840;37.442;2023-08-21T08:17:17;99786.66;;;21.28;49.48
56074;BME280;41950;55.840;37.442;2023-08-21T08:19:42;99808.88;;;21.24;49.00
56074;BME280;41950;55.840;37.442;2023-08-21T08:22:08;99803.56;;;21.10;50.70
56074;BME280;41950;55.840;37.442;2023-08-21T08:24:34;99793.44;;;21.03;50.56
56074;BME280;41950;55.840;37.442;2023-08-21T08:26:59;99801.44;;;21.01;49.91
56074;BME280;41950;55.840;37.442;2023-08-21T08:29:25;99795.31;;;21.01;49.71
56074;BME280;41950;55.840;37.442;2023-08-21T08:31:51;99794.63;;;20.97;49.22
56074;BME280;41950;55.840;37.442;2023-08-21T08:34:16;99796.88;;;20.89;48.88
56074;BME280;41950;55.840;37.442;2023-08-21T08:36:46;99748.75;;;20.70;49.89
56074;BME280;41950;55.840;37.442;2023-08-21T08:39:11;99773.25;;;21.02;51.25
56074;BME280;41950;55.840;37.442;2023-08-21T08:41:58;99761.16;;;20.83;49.72
56074;BME280;41950;55.840;37.442;2023-08-21T08:44:25;99785.69;;;20.70;49.50
56074;BME280;41950;55.840;37.442;2023-08-21T08:46:52;99772.69;;;20.35;49.64
56074;BME280;41950;55.840;37.442;2023-08-21T08:49:18;99772.41;;;20.08;50.47
56074;BME280;41950;55.840;37.442;2023-08-21T08:51:44;99780.81;;;20.15;50.86
56074;BME280;41950;55.840;37.442;2023-08-21T08:54:12;99763.25;;;20.31;51.42
56074;BME280;41950;55.840;37.442;2023-08-21T08:56:38;99741.88;;;20.51;51.71
56074;BME280;41950;55.840;37.442;2023-08-21T08:59:07;99772.59;;;20.98;49.76
56074;BME280;41950;55.840;37.442;2023-08-21T09:01:33;99754.66;;;20.89;50.25
56074;BME280;41950;55.840;37.442;2023-08-21T09:03:58;99728.28;;;20.89;49.10
56074;BME280;41950;55.840;37.442;2023-08-21T09:06:25;99770.75;;;21.14;47.41
56074;BME280;41950;55.840;37.442;2023-08-21T09:08:55;99738.94;;;21.02;48.36
56074;BME280;41950;55.840;37.442;2023-08-21T09:11:21;99771.22;;;21.37;47.19
56074;BME280;41950;55.840;37.442;2023-08-21T09:13:50;99758.78;;;21.39;46.80
56074;BME280;41950;55.840;37.442;2023-08-21T09:16:17;99761.03;;;21.45;47.58
56074;BME280;41950;55.840;37.442;2023-08-21T09:18:54;99753.50;;;21.39;47.88
56074;BME280;41950;55.840;37.442;2023-08-21T09:21:21;99745.25;;;21.29;45.88
56074;BME280;41950;55.840;37.442;2023-08-21T09:23:47;99763.44;;;21.34;47.45
56074;BME280;41950;55.840;37.442;2023-08-21T09:26:23;99744.72;;;21.52;47.11
56074;BME280;41950;55.840;37.442;2023-08-21T09:28:50;99751.22;;;21.75;46.95
56074;BME280;41950;55.840;37.442;2023-08-21T09:31:22;99752.44;;;21.98;46.38
56074;BME280;41950;55.840;37.442;2023-08-21T09:33:58;99731.38;;;22.11;46.89
56074;BME280;41950;55.840;37.442;2023-08-21T09:36:26;99746.66;;;22.20;45.59
56074;BME280;41950;55.840;37.442;2023-08-21T09:38:52;99708.09;;;21.75;45.32
56074;BME280;41950;55.840;37.442;2023-08-21T09:41:22;99732.63;;;21.77;45.92
56074;BME280;41950;55.840;37.442;2023-08-21T09:43:48;99719.16;;;21.53;46.83
56074;BME280;41950;55.840;37.442;2023-08-21T09:46:25;99731.53;;;21.38;47.59
56074;BME280;41950;55.840;37.442;2023-08-21T09:48:52;99717.75;;;20.89;48.82
56074;BME280;41950;55.840;37.442;2023-08-21T09:51:18;99696.22;;;20.35;48.87
56074;BME280;41950;55.840;37.442;2023-08-21T09:53:44;99706.19;;;20.46;49.00
56074;BME280;41950;55.840;37.442;2023-08-21T09:56:11;99746.50;;;21.08;47.49
56074;BME280;41950;55.840;37.442;2023-08-21T09:58:37;99746.78;;;21.47;46.34
56074;BME280;41950;55.840;37.442;2023-08-21T10:01:07;99730.94;;;21.76;45.32
56074;BME280;41950;55.840;37.442;2023-08-21T10:03:40;99727.47;;;22.31;44.67
56074;BME280;41950;55.840;37.442;2023-08-21T10:06:08;99727.47;;;22.70;44.09
56074;BME280;41950;55.840;37.442;2023-08-21T10:08:37;99724.72;;;22.99;43.10
56074;BME280;41950;55.840;37.442;2023-08-21T10:11:07;99684.81;;;23.65;42.30
56074;BME280;41950;55.840;37.442;2023-08-21T10:13:35;99710.84;;;24.69;41.59
56074;BME280;41950;55.840;37.442;2023-08-21T10:16:02;99724.66;;;25.31;40.78
56074;BME280;41950;55.840;37.442;2023-08-21T10:18:33;99654.69;;;24.97;39.42
56074;BME280;41950;55.840;37.442;2023-08-21T10:21:13;99716.47;;;25.23;37.84
56074;BME280;41950;55.840;37.442;2023-08-21T10:23:40;99706.91;;;24.85;37.47
56074;BME280;41950;55.840;37.442;2023-08-21T10:26:07;99719.25;;;24.02;39.30
56074;BME280;41950;55.840;37.442;2023-08-21T10:28:48;99718.19;;;23.68;41.33
56074;BME280;41950;55.840;37.442;2023-08-21T10:31:58;99708.34;;;23.32;41.64
56074;BME280;41950;55.840;37.442;2023-08-21T10:34:31;99714.97;;;22.60;43.88
56074;BME280;41950;55.840;37.442;2023-08-21T10:39:33;99704.22;;;24.26;40.50
56074;BME280;41950;55.840;37.442;2023-08-21T10:42:11;99704.59;;;24.81;37.74
56074;BME280;41950;55.840;37.442;2023-08-21T10:47:14;99702.16;;;25.13;37.22
56074;BME280;41950;55.840;37.442;2023-08-21T10:49:40;99673.00;;;25.69;36.46
56074;BME280;41950;55.840;37.442;2023-08-21T10:52:08;99695.69;;;25.62;34.82
56074;BME280;41950;55.840;37.442;2023-08-21T10:54:45;99696.56;;;24.34;38.17
56074;BME280;41950;55.840;37.442;2023-08-21T10:57:11;99668.59;;;24.30;37.81
56074;BME280;41950;55.840;37.442;2023-08-21T10:59:36;99693.50;;;25.22;36.49
56074;BME280;41950;55.840;37.442;2023-08-21T11:02:02;99694.53;;;26.31;35.15
56074;BME280;41950;55.840;37.442;2023-08-21T11:04:28;99662.88;;;27.32;33.19
56074;BME280;41950;55.840;37.442;2023-08-21T11:06:54;99685.88;;;27.33;32.88
56074;BME280;41950;55.840;37.442;2023-08-21T11:09:21;99677.41;;;27.49;31.26
56074;BME280;41950;55.840;37.442;2023-08-21T11:11:47;99666.41;;;27.63;31.07
56074;BME280;41950;55.840;37.442;2023-08-21T11:14:13;99625.66;;;27.61;31.13
56074;BME280;41950;55.840;37.442;2023-08-21T11:16:38;99654.25;;;27.90;31.28
56074;BME280;41950;55.840;37.442;2023-08-21T11:19:04;99667.13;;;28.25;30.12
56074;BME280;41950;55.840;37.442;2023-08-21T11:21:33;99668.66;;;28.76;31.11
56074;BME280;41950;55.840;37.442;2023-08-21T11:23:58;99671.00;;;29.64;29.97
56074;BME280;41950;55.840;37.442;2023-08-21T11:26:24;99660.56;;;30.16;28.48
56074;BME280;41950;55.840;37.442;2023-08-21T11:28:50;99650.44;;;30.10;27.95
56074;BME280;41950;55.840;37.442;2023-08-21T11:31:16;99647.47;;;30.13;28.92
56074;BME280;41950;55.840;37.442;2023-08-21T11:33:49;99667.16;;;29.94;28.57
56074;BME280;41950;55.840;37.442;2023-08-21T11:36:15;99658.63;;;30.08;29.35
56074;BME280;41950;55.840;37.442;2023-08-21T11:38:41;99670.13;;;29.91;29.14
56074;BME280;41950;55.840;37.442;2023-08-21T11:41:06;99665.50;;;30.11;27.49
56074;BME280;41950;55.840;37.442;2023-08-21T11:43:42;99666.19;;;29.85;28.40
56074;BME280;41950;55.840;37.442;2023-08-21T11:46:09;99666.94;;;28.17;31.00
56074;BME280;41950;55.840;37.442;2023-08-21T11:48:40;99671.41;;;27.26;33.58
56074;BME280;41950;55.840;37.442;2023-08-21T11:51:09;99628.91;;;28.34;32.64
56074;BME280;41950;55.840;37.442;2023-08-21T11:53:37;99658.63;;;29.81;28.48
56074;BME280;41950;55.840;37.442;2023-08-21T11:56:09;99645.50;;;29.88;27.14
56074;BME280;41950;55.840;37.442;2023-08-21T11:58:43;99660.53;;;29.34;29.98
56074;BME280;41950;55.840;37.442;2023-08-21T12:01:10;99654.91;;;30.19;29.41
56074;BME280;41950;55.840;37.442;2023-08-21T12:03:37;99646.75;;;30.82;28.21
56074;BME280;41950;55.840;37.442;2023-08-21T12:06:09;99655.66;;;31.34;28.21
56074;BME280;41950;55.840;37.442;2023-08-21T12:08:35;99648.28;;;31.36;26.56
56074;BME280;41950;55.840;37.442;2023-08-21T12:11:01;99651.91;;;31.61;26.68
56074;BME280;41950;55.840;37.442;2023-08-21T12:13:27;99652.38;;;31.91;25.78
56074;BME280;41950;55.840;37.442;2023-08-21T12:15:53;99635.31;;;32.24;25.23
56074;BME280;41950;55.840;37.442;2023-08-21T12:18:18;99646.94;;;32.41;24.98
56074;BME280;41950;55.840;37.442;2023-08-21T12:20:44;99654.00;;;32.67;24.59
56074;BME280;41950;55.840;37.442;2023-08-21T12:23:09;99625.88;;;31.96;23.99
56074;BME280;41950;55.840;37.442;2023-08-21T12:25:35;99642.06;;;32.28;24.02
56074;BME280;41950;55.840;37.442;2023-08-21T12:28:01;99606.97;;;31.63;25.07
56074;BME280;41950;55.840;37.442;2023-08-21T12:30:26;99619.09;;;31.08;24.87
56074;BME280;41950;55.840;37.442;2023-08-21T12:32:52;99641.19;;;30.58;25.35
56074;BME280;41950;55.840;37.442;2023-08-21T12:35:18;99636.38;;;30.43;25.52
56074;BME280;41950;55.840;37.442;2023-08-21T12:37:43;99635.78;;;30.14;25.68
56074;BME280;41950;55.840;37.442;2023-08-21T12:40:09;99623.91;;;29.71;26.39
56074;BME280;41950;55.840;37.442;2023-08-21T12:42:35;99629.66;;;29.12;28.06
56074;BME280;41950;55.840;37.442;2023-08-21T12:45:00;99623.16;;;28.29;28.92
56074;BME280;41950;55.840;37.442;2023-08-21T12:47:27;99623.13;;;27.50;30.86
56074;BME280;41950;55.840;37.442;2023-08-21T12:49:52;99614.91;;;26.81;31.90
56074;BME280;41950;55.840;37.442;2023-08-21T12:52:18;99619.06;;;26.53;32.75
56074;BME280;41950;55.840;37.442;2023-08-21T12:54:43;99613.94;;;26.40;32.28
56074;BME280;41950;55.840;37.442;2023-08-21T12:57:09;99579.34;;;26.40;32.01
56074;BME280;41950;55.840;37.442;2023-08-21T12:59:37;99618.50;;;26.70;31.19